Terminal Aerodrome Forecast
Issued by NWS

Home | Current Version | Previous Version | Text Only | Print | Product List | Glossary On
Versions: 1 2 3 4 5 6 7 8 9 10 11 12
000
FTUS46 KOTX 261739
TAFMWH
TAF
KMWH 261739Z 2618/2718 VRB04KT P6SM SCT200
     FM262000 19007KT P6SM FEW150 SCT200
     FM271600 22010KT P6SM SCT150 BKN200=

USA.gov is the U.S. government's official web portal to all federal, state and local government web resources and services.